createdAt,value
2023-12-11T00:00:57.136Z,9.57
2023-12-11T00:03:24.236Z,8.95
2023-12-11T00:05:51.445Z,8.77
2023-12-11T00:08:18.411Z,10.15
2023-12-11T00:10:45.514Z,10.25
2023-12-11T00:13:12.786Z,8.57
2023-12-11T00:15:42.659Z,9.93
2023-12-11T00:20:37.283Z,9.57
2023-12-11T00:23:04.219Z,8.73
2023-12-11T00:25:32.705Z,8.80
2023-12-11T00:27:59.714Z,8.18
2023-12-11T00:30:27.511Z,10.07
2023-12-11T00:32:54.534Z,8.70
2023-12-11T00:35:22.521Z,8.27
2023-12-11T00:37:49.453Z,8.63
2023-12-11T00:40:16.471Z,8.88
2023-12-11T00:42:43.510Z,9.73
2023-12-11T00:45:14.958Z,8.13
2023-12-11T00:47:41.976Z,9.38
2023-12-11T00:50:09.535Z,9.20
2023-12-11T00:52:36.896Z,10.15
2023-12-11T00:55:04.141Z,7.60
2023-12-11T00:57:31.496Z,10.65
2023-12-11T00:59:58.682Z,7.63
2023-12-11T01:02:25.738Z,8.18
2023-12-11T01:04:52.791Z,10.85
2023-12-11T01:07:19.803Z,8.63
2023-12-11T01:09:46.772Z,7.65
2023-12-11T01:12:13.769Z,8.25
2023-12-11T01:14:40.906Z,8.32
2023-12-11T01:17:36.602Z,9.30
2023-12-11T01:19:54.970Z,9.80
2023-12-11T01:22:21.933Z,8.35
2023-12-11T01:24:49.075Z,8.00
2023-12-11T01:27:16.059Z,8.27
2023-12-11T01:29:42.979Z,7.97
2023-12-11T01:32:09.932Z,7.43
2023-12-11T01:34:37.091Z,10.57
2023-12-11T01:37:04.310Z,8.75
2023-12-11T01:39:31.298Z,9.50
2023-12-11T01:41:59.696Z,8.73
2023-12-11T01:44:26.878Z,8.40
2023-12-11T01:46:54.654Z,9.13
2023-12-11T01:49:22.053Z,9.23
2023-12-11T01:51:49.400Z,8.27
2023-12-11T01:54:17.167Z,8.77
2023-12-11T01:56:44.087Z,8.40
2023-12-11T01:59:12.207Z,8.38
2023-12-11T02:01:39.758Z,9.80
2023-12-11T02:04:09.033Z,8.57
2023-12-11T02:06:36.317Z,7.97
2023-12-11T02:09:03.461Z,8.10
2023-12-11T02:11:30.446Z,7.97
2023-12-11T02:13:57.450Z,8.27
2023-12-11T02:16:24.367Z,9.30
2023-12-11T02:18:51.552Z,8.30
2023-12-11T02:21:19.137Z,8.07
2023-12-11T02:24:17.710Z,8.02
2023-12-11T02:26:44.944Z,8.68
2023-12-11T02:29:12.055Z,7.75
2023-12-11T02:31:42.404Z,7.72
2023-12-11T02:34:10.462Z,8.55
2023-12-11T02:36:37.530Z,7.13
2023-12-11T02:39:05.155Z,8.75
2023-12-11T02:41:32.201Z,8.30
2023-12-11T02:44:00.472Z,8.68
2023-12-11T02:46:27.752Z,10.93
2023-12-11T02:48:54.837Z,7.85
2023-12-11T02:51:21.978Z,8.30
2023-12-11T02:53:49.073Z,8.15
2023-12-11T02:56:15.997Z,9.73
2023-12-11T02:58:44.517Z,10.35
2023-12-11T03:01:12.179Z,9.50
2023-12-11T03:03:39.404Z,9.40
2023-12-11T03:06:07.273Z,8.38
2023-12-11T03:08:34.303Z,8.82
2023-12-11T03:11:01.346Z,7.93
2023-12-11T03:13:28.264Z,8.65
2023-12-11T03:15:55.340Z,8.27
2023-12-11T03:18:22.344Z,7.60
2023-12-11T03:20:49.396Z,8.43
2023-12-11T03:23:16.347Z,8.88
2023-12-11T03:25:43.306Z,7.82
2023-12-11T03:28:10.448Z,8.50
2023-12-11T03:30:37.463Z,10.02
2023-12-11T03:33:04.397Z,9.30
2023-12-11T03:35:31.477Z,7.90
2023-12-11T03:37:58.406Z,9.90
2023-12-11T03:40:25.421Z,8.15
2023-12-11T03:42:52.406Z,8.93
2023-12-11T03:45:19.384Z,9.93
2023-12-11T03:47:46.301Z,9.45
2023-12-11T03:50:13.355Z,8.38
2023-12-11T03:52:40.404Z,9.20
2023-12-11T03:55:08.147Z,10.18
2023-12-11T03:57:35.231Z,8.98
2023-12-11T04:00:02.438Z,10.75
2023-12-11T04:02:32.086Z,9.30
2023-12-11T04:04:59.204Z,10.45
2023-12-11T04:07:26.142Z,7.85
2023-12-11T04:09:53.276Z,9.80
2023-12-11T04:12:20.218Z,9.18
2023-12-11T04:14:47.162Z,9.70
2023-12-11T04:17:15.440Z,9.32
2023-12-11T04:19:42.524Z,10.27
2023-12-11T04:22:09.635Z,10.18
2023-12-11T04:24:36.620Z,9.25
2023-12-11T04:27:03.818Z,9.15
2023-12-11T04:29:30.826Z,8.70
2023-12-11T04:31:57.721Z,9.38
2023-12-11T04:34:25.349Z,8.90
2023-12-11T04:36:52.331Z,10.23
2023-12-11T04:39:19.378Z,9.45
2023-12-11T04:41:46.332Z,9.55
2023-12-11T04:44:13.288Z,8.70
2023-12-11T04:46:40.202Z,9.68
2023-12-11T04:49:07.356Z,9.65
2023-12-11T04:51:34.441Z,9.27
2023-12-11T04:54:01.456Z,8.50
2023-12-11T04:56:28.418Z,10.18
2023-12-11T04:58:55.490Z,8.90
2023-12-11T05:01:23.201Z,10.45
2023-12-11T05:03:50.356Z,10.27
2023-12-11T05:06:17.407Z,9.73
2023-12-11T05:08:44.430Z,10.07
2023-12-11T05:11:11.454Z,10.52
2023-12-11T05:13:38.413Z,10.20
2023-12-11T05:16:05.832Z,8.73
2023-12-11T05:18:32.890Z,9.52
2023-12-11T05:21:06.377Z,10.43
2023-12-11T05:23:33.398Z,9.82
2023-12-11T05:26:00.522Z,9.90
2023-12-11T05:28:27.508Z,9.90
2023-12-11T05:30:54.467Z,8.48
2023-12-11T05:33:21.548Z,9.32
2023-12-11T05:35:48.542Z,9.70
2023-12-11T05:38:15.538Z,10.35
2023-12-11T05:40:42.589Z,9.77
2023-12-11T05:43:09.687Z,8.88
2023-12-11T05:45:36.705Z,8.07
2023-12-11T05:48:03.845Z,8.90
2023-12-11T05:50:33.748Z,8.80
2023-12-11T05:53:01.645Z,10.07
2023-12-11T05:55:28.590Z,9.60
2023-12-11T05:57:55.616Z,9.05
2023-12-11T06:00:22.630Z,9.73
2023-12-11T06:02:49.608Z,10.02
2023-12-11T06:05:16.549Z,10.52
2023-12-11T06:07:43.512Z,9.63
2023-12-11T06:10:10.743Z,10.32
2023-12-11T06:12:38.037Z,11.82
2023-12-11T06:15:05.749Z,9.65
2023-12-11T06:17:32.974Z,9.13
2023-12-11T06:20:00.631Z,11.43
2023-12-11T06:22:28.013Z,10.18
2023-12-11T06:24:55.197Z,10.00
2023-12-11T06:27:24.066Z,9.32
2023-12-11T06:29:51.166Z,9.30
2023-12-11T06:32:18.225Z,12.30
2023-12-11T06:34:45.253Z,9.57
2023-12-11T06:37:12.386Z,10.63
2023-12-11T06:39:39.634Z,9.75
2023-12-11T06:42:06.862Z,10.10
2023-12-11T06:44:33.815Z,9.85
2023-12-11T06:47:00.761Z,9.93
2023-12-11T06:49:27.816Z,9.65
2023-12-11T06:51:56.556Z,10.45
2023-12-11T06:54:23.561Z,10.35
2023-12-11T06:56:50.556Z,9.85
2023-12-11T06:59:17.461Z,10.80
2023-12-11T07:01:44.683Z,10.48
2023-12-11T07:04:11.798Z,10.10
2023-12-11T07:06:39.037Z,10.60
2023-12-11T07:09:06.114Z,10.13
2023-12-11T07:11:33.216Z,10.00
2023-12-11T07:14:00.254Z,9.18
2023-12-11T07:16:28.429Z,9.50
2023-12-11T07:18:55.594Z,7.82
2023-12-11T07:21:22.974Z,8.98
2023-12-11T07:23:51.177Z,8.40
2023-12-11T07:26:18.193Z,10.00
2023-12-11T07:28:45.121Z,8.13
2023-12-11T07:31:12.172Z,8.15
2023-12-11T07:33:39.223Z,9.00
2023-12-11T07:36:07.036Z,8.27
2023-12-11T07:38:33.989Z,10.05
2023-12-11T07:41:02.469Z,10.40
2023-12-11T07:43:30.464Z,10.70
2023-12-11T07:45:58.137Z,9.20
2023-12-11T07:48:25.174Z,9.93
2023-12-11T07:50:52.214Z,9.48
2023-12-11T07:53:19.244Z,10.38
2023-12-11T07:55:46.549Z,10.32
2023-12-11T07:58:15.048Z,9.60
2023-12-11T08:00:42.285Z,10.35
2023-12-11T08:03:09.793Z,10.45
2023-12-11T08:05:36.812Z,9.45
2023-12-11T08:08:03.751Z,10.50
2023-12-11T08:10:30.821Z,8.73
2023-12-11T08:12:58.260Z,10.23
2023-12-11T08:15:25.356Z,11.00
2023-12-11T08:17:52.751Z,11.27
2023-12-11T08:20:20.776Z,11.43
2023-12-11T08:22:47.865Z,11.35
2023-12-11T08:25:15.629Z,11.45
2023-12-11T08:27:43.928Z,12.02
2023-12-11T08:30:12.645Z,10.60
2023-12-11T08:32:41.175Z,11.15
2023-12-11T08:35:09.692Z,10.27
2023-12-11T08:37:37.696Z,9.88
2023-12-11T08:40:06.090Z,9.98
2023-12-11T08:42:40.901Z,10.27
2023-12-11T08:45:10.150Z,11.45
2023-12-11T08:47:39.579Z,10.85
2023-12-11T08:50:11.399Z,10.80
2023-12-11T08:52:39.230Z,11.98
2023-12-11T08:55:07.122Z,12.00
2023-12-11T08:57:35.035Z,10.70
2023-12-11T09:00:04.631Z,11.88
2023-12-11T09:02:32.294Z,10.55
2023-12-11T09:04:59.342Z,9.55
2023-12-11T09:07:26.446Z,11.43
2023-12-11T09:09:53.357Z,10.88
2023-12-11T09:12:28.346Z,11.77
2023-12-11T09:15:00.400Z,12.10
2023-12-11T09:17:27.899Z,11.05
2023-12-11T09:19:56.191Z,10.88
2023-12-11T09:22:24.425Z,11.40
2023-12-11T09:24:52.096Z,10.85
2023-12-11T09:27:19.203Z,13.35
2023-12-11T09:29:49.534Z,11.13
2023-12-11T09:32:17.186Z,9.90
2023-12-11T09:34:44.465Z,11.48
2023-12-11T09:37:11.678Z,12.23
2023-12-11T09:39:40.354Z,10.48
2023-12-11T09:42:08.931Z,11.13
2023-12-11T09:44:37.193Z,11.15
2023-12-11T09:47:21.314Z,11.73
2023-12-11T09:49:48.627Z,11.73
2023-12-11T09:52:16.087Z,10.98
2023-12-11T09:54:43.579Z,11.27
2023-12-11T09:57:13.985Z,11.25
2023-12-11T09:59:42.188Z,10.18
2023-12-11T10:02:16.036Z,13.02
2023-12-11T10:05:10.204Z,9.70
2023-12-11T10:07:46.067Z,10.88
2023-12-11T10:10:27.428Z,10.15
2023-12-11T10:12:59.229Z,9.80
2023-12-11T10:15:37.317Z,11.02
2023-12-11T10:18:09.821Z,10.93
2023-12-11T10:20:42.486Z,11.88
2023-12-11T10:23:21.883Z,10.75
2023-12-11T10:26:05.804Z,10.20
2023-12-11T10:28:33.058Z,10.93
2023-12-11T10:31:03.770Z,10.52
2023-12-11T10:33:32.478Z,9.68
2023-12-11T10:36:17.714Z,9.15
2023-12-11T10:38:44.829Z,10.25
2023-12-11T10:41:26.638Z,9.90
2023-12-11T10:44:07.910Z,10.30
2023-12-11T10:46:41.035Z,10.05
2023-12-11T10:49:08.590Z,10.60
2023-12-11T10:51:37.824Z,9.68
2023-12-11T10:54:17.711Z,10.38
2023-12-11T10:56:47.945Z,11.70
2023-12-11T10:59:14.971Z,10.35
2023-12-11T11:01:46.729Z,11.30
2023-12-11T11:04:16.315Z,10.35
2023-12-11T11:07:04.012Z,9.38
2023-12-11T11:09:46.724Z,10.23
2023-12-11T11:12:29.226Z,10.63
2023-12-11T11:14:56.396Z,9.63
2023-12-11T11:17:23.339Z,16.02
2023-12-11T11:20:19.106Z,17.02
2023-12-11T11:22:47.687Z,10.57
2023-12-11T11:25:33.821Z,11.02
2023-12-11T11:28:01.944Z,10.85
2023-12-11T11:30:47.612Z,11.07
2023-12-11T11:33:14.722Z,12.32
2023-12-11T11:35:48.026Z,10.15
2023-12-11T11:38:17.557Z,10.82
2023-12-11T11:40:45.381Z,11.07
2023-12-11T11:43:14.301Z,10.88
2023-12-11T11:45:42.202Z,10.98
2023-12-11T11:48:09.454Z,10.57
2023-12-11T11:50:36.540Z,10.18
2023-12-11T11:53:12.779Z,10.70
2023-12-11T11:58:17.083Z,12.45
2023-12-11T12:00:44.729Z,10.80
2023-12-11T12:03:12.914Z,12.07
2023-12-11T12:05:56.826Z,11.50
2023-12-11T12:08:24.293Z,11.52
2023-12-11T12:10:51.308Z,11.43
2023-12-11T12:13:18.901Z,10.95
2023-12-11T12:15:46.192Z,12.13
2023-12-11T12:18:17.192Z,11.70
2023-12-11T12:21:00.883Z,11.23
2023-12-11T12:23:28.313Z,11.27
2023-12-11T12:26:04.287Z,12.35
2023-12-11T12:28:31.889Z,12.13
2023-12-11T12:30:59.140Z,11.25
2023-12-11T12:33:26.808Z,11.52
2023-12-11T12:35:54.101Z,10.15
2023-12-11T12:38:22.632Z,10.68
2023-12-11T12:40:50.297Z,12.70
2023-12-11T12:43:17.542Z,12.25
2023-12-11T12:45:45.884Z,10.55
2023-12-11T12:48:14.580Z,11.07
2023-12-11T12:50:41.760Z,10.88
2023-12-11T12:53:17.306Z,10.77
2023-12-11T12:55:58.878Z,11.88
2023-12-11T12:58:29.158Z,11.75
2023-12-11T13:00:58.046Z,11.73
2023-12-11T13:03:26.626Z,11.77
2023-12-11T13:05:59.149Z,10.95
2023-12-11T13:08:26.402Z,10.68
2023-12-11T13:10:55.495Z,10.13
2023-12-11T13:13:27.224Z,10.15
2023-12-11T13:15:55.463Z,10.18
2023-12-11T13:18:22.601Z,9.45
2023-12-11T13:20:50.770Z,9.80
2023-12-11T13:23:19.559Z,10.43
2023-12-11T13:25:46.706Z,10.95
2023-12-11T13:28:13.757Z,10.20
2023-12-11T13:30:41.064Z,10.25
2023-12-11T13:33:08.162Z,12.02
2023-12-11T13:35:35.806Z,11.18
2023-12-11T13:38:02.723Z,10.77
2023-12-11T13:40:30.011Z,10.95
2023-12-11T13:42:57.825Z,11.05
2023-12-11T13:45:24.933Z,11.10
2023-12-11T13:47:52.603Z,11.07
2023-12-11T13:50:19.752Z,11.93
2023-12-11T13:52:48.216Z,11.80
2023-12-11T13:55:15.589Z,10.88
2023-12-11T13:57:42.685Z,11.95
2023-12-11T14:00:10.556Z,11.57
2023-12-11T14:02:59.877Z,12.10
2023-12-11T14:05:24.908Z,10.75
2023-12-11T14:07:53.725Z,11.15
2023-12-11T14:10:20.805Z,13.68
2023-12-11T14:12:47.814Z,10.95
2023-12-11T14:15:14.856Z,13.10
2023-12-11T14:17:41.950Z,10.10
2023-12-11T14:20:10.084Z,11.27
2023-12-11T14:22:41.218Z,11.30
2023-12-11T14:25:09.547Z,12.63
2023-12-11T14:27:36.893Z,11.75
2023-12-11T14:30:04.263Z,11.52
2023-12-11T14:32:32.549Z,11.13
2023-12-11T14:34:59.829Z,11.00
2023-12-11T14:37:26.837Z,11.57
2023-12-11T14:39:54.199Z,11.60
2023-12-11T14:42:24.667Z,10.98
2023-12-11T14:44:51.812Z,11.00
2023-12-11T14:47:18.798Z,11.05
2023-12-11T14:49:45.941Z,11.05
2023-12-11T14:52:13.222Z,10.70
2023-12-11T14:54:40.492Z,11.90
2023-12-11T14:57:07.558Z,10.77
2023-12-11T14:59:34.614Z,9.25
2023-12-11T15:02:02.174Z,10.07
2023-12-11T15:04:29.251Z,10.48
2023-12-11T15:06:56.353Z,9.40
2023-12-11T15:09:24.002Z,9.82
2023-12-11T15:11:51.257Z,9.55
2023-12-11T15:14:18.666Z,9.00
2023-12-11T15:16:47.263Z,7.82
2023-12-11T15:19:14.533Z,7.63
2023-12-11T15:21:41.590Z,7.32
2023-12-11T15:24:08.748Z,8.18
2023-12-11T15:26:35.694Z,7.88
2023-12-11T15:29:07.016Z,7.50
2023-12-11T15:31:34.685Z,9.43
2023-12-11T15:34:02.356Z,8.27
2023-12-11T15:36:29.484Z,9.13
2023-12-11T15:38:56.424Z,9.73
2023-12-11T15:41:23.460Z,9.10
2023-12-11T15:43:50.408Z,8.55
2023-12-11T15:46:17.923Z,9.65
2023-12-11T15:48:46.670Z,8.13
2023-12-11T15:51:20.273Z,8.60
2023-12-11T15:53:47.698Z,7.47
2023-12-11T15:56:17.310Z,9.07
2023-12-11T15:58:45.640Z,8.18
2023-12-11T16:01:12.974Z,9.30
2023-12-11T16:03:40.441Z,9.98
2023-12-11T16:06:08.733Z,9.10
2023-12-11T16:08:35.937Z,9.60
2023-12-11T16:11:03.452Z,7.90
2023-12-11T16:13:31.602Z,8.18
2023-12-11T16:15:58.937Z,7.85
2023-12-11T16:18:26.178Z,7.57
2023-12-11T16:20:53.273Z,7.75
2023-12-11T16:23:20.223Z,7.57
2023-12-11T16:25:55.978Z,8.70
2023-12-11T16:28:29.499Z,8.38
2023-12-11T16:30:56.756Z,9.07
2023-12-11T16:33:25.199Z,9.07
2023-12-11T16:35:52.650Z,8.57
2023-12-11T16:38:19.885Z,8.73
2023-12-11T16:40:47.071Z,9.07
2023-12-11T16:43:14.105Z,8.68
2023-12-11T16:45:50.493Z,8.73
2023-12-11T16:48:17.968Z,8.13
2023-12-11T16:50:45.860Z,9.20
2023-12-11T16:53:13.124Z,9.20
2023-12-11T16:55:40.309Z,8.45
2023-12-11T16:58:08.482Z,9.18
2023-12-11T17:00:35.808Z,9.07
2023-12-11T17:03:02.969Z,8.82
2023-12-11T17:07:58.950Z,9.60
2023-12-11T17:10:26.056Z,9.50
2023-12-11T17:12:53.084Z,8.88
2023-12-11T17:15:20.019Z,7.95
2023-12-11T17:17:47.072Z,9.07
2023-12-11T17:20:14.074Z,8.27
2023-12-11T17:22:42.156Z,9.00
2023-12-11T17:25:09.542Z,8.88
2023-12-11T17:27:36.515Z,7.40
2023-12-11T17:30:04.599Z,8.27
2023-12-11T17:32:32.824Z,7.35
2023-12-11T17:35:00.472Z,7.40
2023-12-11T17:37:27.740Z,7.68
2023-12-11T17:39:56.791Z,7.68
2023-12-11T17:42:25.055Z,7.93
2023-12-11T17:44:52.003Z,7.47
2023-12-11T17:47:19.011Z,6.88
2023-12-11T17:49:46.088Z,6.13
2023-12-11T17:52:13.508Z,7.78
2023-12-11T17:54:40.617Z,7.50
2023-12-11T17:57:07.734Z,7.90
2023-12-11T17:59:34.757Z,7.53
2023-12-11T18:02:01.892Z,7.82
2023-12-11T18:04:28.877Z,8.02
2023-12-11T18:06:55.952Z,8.23
2023-12-11T18:09:22.919Z,8.27
2023-12-11T18:11:49.863Z,7.93
2023-12-11T18:14:19.918Z,8.90
2023-12-11T18:19:14.833Z,7.78
2023-12-11T18:21:42.128Z,8.35
2023-12-11T18:24:09.062Z,8.60
2023-12-11T18:26:36.070Z,8.20
2023-12-11T18:29:03.141Z,8.00
2023-12-11T18:31:30.186Z,8.35
2023-12-11T18:33:57.573Z,8.07
2023-12-11T18:36:25.623Z,8.18
2023-12-11T18:38:52.695Z,7.57
2023-12-11T18:41:24.019Z,7.75
2023-12-11T18:43:51.514Z,7.15
2023-12-11T18:46:22.371Z,7.43
2023-12-11T18:48:49.653Z,8.43
2023-12-11T18:51:31.287Z,7.93
2023-12-11T18:53:58.724Z,7.22
2023-12-11T18:56:29.836Z,8.00
2023-12-11T18:58:57.014Z,9.15
2023-12-11T19:01:25.396Z,11.38
2023-12-11T19:03:52.871Z,7.55
2023-12-11T19:06:20.277Z,7.25
2023-12-11T19:08:47.379Z,9.43
2023-12-11T19:11:16.246Z,7.75
2023-12-11T19:13:43.630Z,7.57
2023-12-11T19:16:10.662Z,8.98
2023-12-11T19:18:37.782Z,8.50
2023-12-11T19:21:05.383Z,7.90
2023-12-11T19:23:32.392Z,7.85
2023-12-11T19:25:59.829Z,7.60
2023-12-11T19:28:27.260Z,7.72
2023-12-11T19:30:54.576Z,7.75
2023-12-11T19:33:22.234Z,7.10
2023-12-11T19:35:50.603Z,8.10
2023-12-11T19:38:18.055Z,7.35
2023-12-11T19:40:44.996Z,6.25
2023-12-11T19:43:13.561Z,8.23
2023-12-11T19:45:40.557Z,7.13
2023-12-11T19:48:07.854Z,9.50
2023-12-11T19:50:35.011Z,8.18
2023-12-11T19:53:02.802Z,8.30
2023-12-11T19:55:29.878Z,8.00
2023-12-11T19:57:56.985Z,7.80
2023-12-11T20:00:24.000Z,7.28
2023-12-11T20:02:52.149Z,7.22
2023-12-11T20:05:19.515Z,7.82
2023-12-11T20:07:46.695Z,7.65
2023-12-11T20:10:13.823Z,7.80
2023-12-11T20:12:40.998Z,8.90
2023-12-11T20:15:12.148Z,7.35
2023-12-11T20:17:40.081Z,7.47
2023-12-11T20:20:09.085Z,8.07
2023-12-11T20:22:36.452Z,8.23
2023-12-11T20:25:04.214Z,7.75
2023-12-11T20:27:31.433Z,8.15
2023-12-11T20:29:58.655Z,8.45
2023-12-11T20:32:26.337Z,8.88
2023-12-11T20:34:54.099Z,9.55
2023-12-11T20:37:21.292Z,8.73
2023-12-11T20:39:48.320Z,8.80
2023-12-11T20:42:18.047Z,8.13
2023-12-11T20:44:45.004Z,9.07
2023-12-11T20:47:11.945Z,8.25
2023-12-11T20:49:39.252Z,7.85
2023-12-11T20:52:06.661Z,7.85
2023-12-11T20:54:33.629Z,8.50
2023-12-11T20:57:00.857Z,8.48
2023-12-11T20:59:27.846Z,9.98
2023-12-11T21:01:55.674Z,8.55
2023-12-11T21:04:22.911Z,8.70
2023-12-11T21:06:49.948Z,8.05
2023-12-11T21:09:18.238Z,8.48
2023-12-11T21:11:45.611Z,8.07
2023-12-11T21:14:12.754Z,9.13
2023-12-11T21:16:39.840Z,7.93
2023-12-11T21:19:07.065Z,7.35
2023-12-11T21:21:34.512Z,7.65
2023-12-11T21:24:01.503Z,8.35
2023-12-11T21:26:32.101Z,8.77
2023-12-11T21:29:00.369Z,6.90
2023-12-11T21:31:30.692Z,7.47
2023-12-11T21:33:59.720Z,6.20
2023-12-11T21:36:30.669Z,7.45
2023-12-11T21:38:58.976Z,7.25
2023-12-11T21:41:26.003Z,7.32
2023-12-11T21:43:53.929Z,7.10
2023-12-11T21:46:21.257Z,7.78
2023-12-11T21:48:49.528Z,7.43
2023-12-11T21:51:20.046Z,9.20
2023-12-11T21:53:48.608Z,8.27
2023-12-11T21:56:15.752Z,8.57
2023-12-11T21:58:43.417Z,7.57
2023-12-11T22:01:10.775Z,9.35
2023-12-11T22:03:38.055Z,7.72
2023-12-11T22:06:05.231Z,7.95
2023-12-11T22:08:32.251Z,9.10
2023-12-11T22:10:59.187Z,8.00
2023-12-11T22:13:26.314Z,8.40
2023-12-11T22:15:53.328Z,8.15
2023-12-11T22:18:20.673Z,7.68
2023-12-11T22:20:47.930Z,8.02
2023-12-11T22:23:15.308Z,6.90
2023-12-11T22:25:42.310Z,7.78
2023-12-11T22:28:09.564Z,8.63
2023-12-11T22:30:36.614Z,7.30
2023-12-11T22:33:03.772Z,7.28
2023-12-11T22:35:30.785Z,6.53
2023-12-11T22:37:57.772Z,7.00
2023-12-11T22:40:24.710Z,7.25
2023-12-11T22:42:51.859Z,6.78
2023-12-11T22:45:20.736Z,7.63
2023-12-11T22:47:47.814Z,7.43
2023-12-11T22:50:14.965Z,7.78
2023-12-11T22:52:42.045Z,8.13
2023-12-11T22:55:09.840Z,7.82
2023-12-11T22:57:36.858Z,6.38
2023-12-11T23:00:04.640Z,7.53
2023-12-11T23:02:31.640Z,7.78
2023-12-11T23:04:58.935Z,7.82
2023-12-11T23:07:26.108Z,6.30
2023-12-11T23:09:53.098Z,6.28
2023-12-11T23:12:20.140Z,6.57
2023-12-11T23:14:47.083Z,8.05
2023-12-11T23:17:14.203Z,7.03
2023-12-11T23:19:41.709Z,7.53
2023-12-11T23:22:08.863Z,7.45
2023-12-11T23:24:36.521Z,7.75
2023-12-11T23:27:03.595Z,7.68
2023-12-11T23:29:30.530Z,8.23
2023-12-11T23:31:57.764Z,7.13
2023-12-11T23:34:24.765Z,7.78
2023-12-11T23:36:51.807Z,7.38
2023-12-11T23:39:18.746Z,7.20
2023-12-11T23:41:45.745Z,7.53
2023-12-11T23:44:12.689Z,7.85
2023-12-11T23:46:39.769Z,7.30
2023-12-11T23:49:06.849Z,7.82
2023-12-11T23:51:33.950Z,8.07
2023-12-11T23:54:00.957Z,7.43
2023-12-11T23:56:27.989Z,7.47
2023-12-11T23:58:54.930Z,8.38
